Time;durP1;ratioP1;P1;durP2;ratioP2;P2;SDS_P1;SDS_P2;PMS_P1;PMS_P2;Temp;Humidity;BMP_temperature;BMP_pressure;BME280_temperature;BME280_humidity;BME280_pressure;Samples;Min_cycle;Max_cycle;Signal;HPM_P1;HPM_P2
2021/08/01 00:00:46;;;;;;;7.03;5.10;;;17.90;98.80;;;;;;5057819;28;20181;-40
2021/08/01 00:03:11;;;;;;;6.40;4.80;;;17.90;98.70;;;;;;5058008;28;20487;-39
2021/08/01 00:05:37;;;;;;;6.20;5.57;;;17.90;98.80;;;;;;5057362;28;20177;-39
2021/08/01 00:08:03;;;;;;;5.80;5.20;;;18.00;99.00;;;;;;5057602;28;20338;-37
2021/08/01 00:10:29;;;;;;;5.37;4.90;;;18.00;98.90;;;;;;5057474;28;20563;-39
2021/08/01 00:12:55;;;;;;;7.30;4.77;;;18.00;98.70;;;;;;5057244;28;20424;-38
2021/08/01 00:15:21;;;;;;;7.13;4.70;;;18.10;98.60;;;;;;5057699;28;20466;-39
2021/08/01 00:17:47;;;;;;;6.77;4.80;;;18.10;98.60;;;;;;5057171;28;20808;-39
2021/08/01 00:20:13;;;;;;;4.80;4.30;;;18.10;98.30;;;;;;5057206;28;20164;-39
2021/08/01 00:22:39;;;;;;;4.80;4.27;;;18.20;98.30;;;;;;5056667;28;20425;-39
2021/08/01 00:25:05;;;;;;;4.90;4.40;;;18.20;98.10;;;;;;5057294;28;20464;-38
2021/08/01 00:27:35;;;;;;;4.23;3.83;;;18.20;98.10;;;;;;5056803;28;20189;-39
2021/08/01 00:30:02;;;;;;;5.47;4.37;;;18.20;98.10;;;;;;5057145;28;20474;-41
2021/08/01 00:32:28;;;;;;;7.00;4.67;;;18.20;98.10;;;;;;5057494;28;20466;-39
2021/08/01 00:34:53;;;;;;;5.73;4.40;;;18.30;98.20;;;;;;5057471;28;20668;-40
2021/08/01 00:37:19;;;;;;;4.53;3.90;;;18.30;98.40;;;;;;5057104;28;20224;-39
2021/08/01 00:39:45;;;;;;;4.90;4.40;;;18.30;98.10;;;;;;5056553;28;20170;-43
2021/08/01 00:42:10;;;;;;;4.80;4.27;;;18.30;98.10;;;;;;5056091;28;20404;-39
2021/08/01 00:44:36;;;;;;;5.17;4.67;;;18.30;97.80;;;;;;5057152;28;20170;-40
2021/08/01 00:47:02;;;;;;;5.40;4.90;;;18.30;98.10;;;;;;5057088;28;20179;-38
2021/08/01 00:49:28;;;;;;;6.13;4.50;;;18.30;98.50;;;;;;5057231;28;20420;-41
2021/08/01 00:51:55;;;;;;;5.30;4.40;;;18.20;98.70;;;;;;5039672;28;20182;-40
2021/08/01 00:54:23;;;;;;;6.03;5.17;;;18.10;98.50;;;;;;5056589;28;20419;-40
2021/08/01 00:56:49;;;;;;;6.43;4.90;;;18.00;98.90;;;;;;5057474;28;20439;-38
2021/08/01 00:59:15;;;;;;;6.80;4.90;;;18.00;99.40;;;;;;5039565;28;20428;-38
2021/08/01 01:01:53;;;;;;;9.83;5.90;;;17.90;99.70;;;;;;5057588;28;20478;-39
2021/08/01 01:04:26;;;;;;;6.57;5.50;;;17.80;99.90;;;;;;5057588;28;20680;-40
2021/08/01 01:07:05;;;;;;;7.73;4.80;;;17.60;99.90;;;;;;5057435;28;20927;-39
2021/08/01 01:09:57;;;;;;;8.10;5.13;;;17.50;99.90;;;;;;5059616;28;20427;-39
2021/08/01 01:12:28;;;;;;;5.73;4.97;;;17.50;99.90;;;;;;5019868;28;20444;-40
2021/08/01 01:14:57;;;;;;;6.60;5.40;;;17.50;99.90;;;;;;5055884;28;20796;-41
2021/08/01 01:17:29;;;;;;;5.73;4.90;;;17.50;99.90;;;;;;5039620;28;20428;-38
2021/08/01 01:20:14;;;;;;;7.30;4.40;;;17.50;99.90;;;;;;5057360;28;20418;-39
2021/08/01 01:22:52;;;;;;;4.60;4.20;;;17.50;99.90;;;;;;5056998;28;20432;-39
2021/08/01 01:25:32;;;;;;;6.00;5.50;;;17.60;99.90;;;;;;5057074;28;20452;-36
2021/08/01 01:28:22;;;;;;;5.70;5.10;;;17.60;99.90;;;;;;5056450;28;20443;-38
2021/08/01 01:31:20;;;;;;;4.57;4.27;;;17.50;99.90;;;;;;5055912;28;20423;-38
2021/08/01 01:34:13;;;;;;;5.40;4.67;;;17.50;99.90;;;;;;5024930;28;20857;-42
2021/08/01 01:36:43;;;;;;;7.97;5.20;;;17.40;99.90;;;;;;5057207;28;20486;-38
2021/08/01 01:39:08;;;;;;;6.43;5.27;;;17.40;99.90;;;;;;5058845;28;20417;-37
2021/08/01 01:41:35;;;;;;;7.60;5.20;;;17.40;99.90;;;;;;5060598;28;20832;-39
2021/08/01 01:44:04;;;;;;;5.20;4.77;;;17.40;99.90;;;;;;5059708;28;20264;-38
2021/08/01 01:46:30;;;;;;;5.53;5.13;;;17.50;99.90;;;;;;5060626;28;20416;-39
2021/08/01 01:48:56;;;;;;;5.40;4.50;;;17.50;99.90;;;;;;5042941;28;20478;-37
2021/08/01 01:51:22;;;;;;;5.77;4.90;;;17.50;99.90;;;;;;5059878;28;20424;-39
2021/08/01 01:53:49;;;;;;;8.10;5.00;;;17.50;99.90;;;;;;5059545;28;20531;-39
2021/08/01 01:56:15;;;;;;;5.70;5.20;;;17.50;99.90;;;;;;5058983;28;20767;-43
2021/08/01 01:58:41;;;;;;;5.53;5.03;;;17.40;99.90;;;;;;5060486;28;20422;-38
2021/08/01 02:01:06;;;;;;;6.37;4.73;;;17.40;99.90;;;;;;5059404;28;20424;-42
2021/08/01 02:03:33;;;;;;;6.03;5.50;;;17.40;99.90;;;;;;5060122;28;20170;-39
2021/08/01 02:05:59;;;;;;;7.60;4.80;;;17.50;99.90;;;;;;5060634;28;20181;-39
2021/08/01 02:08:26;;;;;;;5.10;4.70;;;17.50;99.90;;;;;;5059729;28;20833;-41
2021/08/01 02:10:57;;;;;;;5.73;5.23;;;17.40;99.90;;;;;;5060286;28;20185;-43
2021/08/01 02:13:30;;;;;;;6.17;5.30;;;17.40;99.90;;;;;;5058377;28;20876;-39
2021/08/01 02:15:58;;;;;;;5.87;5.23;;;17.30;99.90;;;;;;5059896;28;20474;-37
2021/08/01 02:18:29;;;;;;;5.73;4.80;;;17.20;99.90;;;;;;5059909;28;20432;-40
2021/08/01 02:20:55;;;;;;;5.83;5.23;;;17.00;99.90;;;;;;5058877;28;20899;-38
2021/08/01 02:23:26;;;;;;;5.87;5.30;;;16.80;99.90;;;;;;5063652;28;20474;-38
2021/08/01 02:25:52;;;;;;;5.47;4.90;;;16.70;99.90;;;;;;5080317;28;20415;-39
2021/08/01 02:28:19;;;;;;;6.37;5.67;;;16.60;99.90;;;;;;5079907;28;20438;-40
2021/08/01 02:30:46;;;;;;;4.70;4.30;;;16.70;99.90;;;;;;5080762;28;20679;-39
2021/08/01 02:33:12;;;;;;;9.20;5.57;;;16.70;99.90;;;;;;5080581;28;20905;-39
2021/08/01 02:35:38;;;;;;;5.90;5.40;;;16.80;99.90;;;;;;5079207;28;20455;-38
2021/08/01 02:38:04;;;;;;;6.07;5.23;;;16.80;99.90;;;;;;5080305;28;20845;-38
2021/08/01 02:40:35;;;;;;;7.80;5.40;;;16.90;99.90;;;;;;5078746;28;20418;-38
2021/08/01 02:43:03;;;;;;;5.30;4.80;;;16.90;99.90;;;;;;5079410;28;20470;-39
2021/08/01 02:45:28;;;;;;;5.63;4.97;;;16.90;99.90;;;;;;5079270;28;20430;-40
2021/08/01 02:47:55;;;;;;;6.40;5.20;;;17.00;99.90;;;;;;5078337;28;20470;-41
2021/08/01 02:50:22;;;;;;;5.10;4.60;;;17.10;99.90;;;;;;5077951;28;20186;-39
2021/08/01 02:52:58;;;;;;;6.70;4.93;;;17.10;99.90;;;;;;5078201;28;20430;-40
2021/08/01 02:55:25;;;;;;;5.60;5.00;;;17.20;99.90;;;;;;5079250;28;20465;-38
2021/08/01 02:57:52;;;;;;;8.77;5.53;;;17.20;99.90;;;;;;5061713;28;20481;-39
2021/08/01 03:00:18;;;;;;;5.10;4.70;;;17.30;99.90;;;;;;5077988;28;20507;-40
2021/08/01 03:02:48;;;;;;;5.40;4.30;;;17.30;99.90;;;;;;5078201;28;20427;-43
2021/08/01 03:05:15;;;;;;;4.63;4.20;;;17.30;99.90;;;;;;5077961;28;20829;-39
2021/08/01 03:07:41;;;;;;;5.63;5.13;;;17.30;99.90;;;;;;5078010;28;20864;-42
2021/08/01 03:10:07;;;;;;;5.97;4.83;;;17.20;99.90;;;;;;5078507;28;20746;-39
2021/08/01 03:12:37;;;;;;;5.53;5.03;;;17.20;99.90;;;;;;5079015;28;20754;-41
2021/08/01 03:15:03;;;;;;;7.07;5.87;;;17.10;99.90;;;;;;5078905;28;20489;-38
2021/08/01 03:17:29;;;;;;;4.97;4.57;;;17.00;99.90;;;;;;5078961;28;20440;-38
2021/08/01 03:19:54;;;;;;;7.33;5.33;;;16.90;99.90;;;;;;5079130;28;20411;-41
2021/08/01 03:22:20;;;;;;;5.20;4.80;;;16.90;99.90;;;;;;5077551;28;20499;-39
2021/08/01 03:24:46;;;;;;;6.07;5.47;;;16.90;99.90;;;;;;5061584;28;20320;-40
2021/08/01 03:27:12;;;;;;;5.37;4.97;;;17.00;99.90;;;;;;5058712;28;20252;-39
2021/08/01 03:29:37;;;;;;;5.63;5.07;;;17.10;99.90;;;;;;5058922;28;20822;-39
2021/08/01 03:32:03;;;;;;;4.70;4.30;;;17.10;99.90;;;;;;5058039;28;20481;-39
2021/08/01 03:34:29;;;;;;;5.07;4.53;;;17.20;99.90;;;;;;5058264;28;20261;-40
2021/08/01 03:36:57;;;;;;;5.70;5.17;;;17.20;99.90;;;;;;5058778;28;20491;-39
2021/08/01 03:39:22;;;;;;;7.30;5.00;;;17.10;99.90;;;;;;5058816;28;20228;-39
2021/08/01 03:41:48;;;;;;;6.30;5.63;;;17.00;99.90;;;;;;5041136;28;20437;-36
2021/08/01 03:44:14;;;;;;;6.23;5.73;;;17.00;99.90;;;;;;5058078;28;20842;-39
2021/08/01 03:46:40;;;;;;;8.80;6.00;;;16.90;99.90;;;;;;5058355;28;20475;-37
2021/08/01 03:49:06;;;;;;;5.60;5.00;;;16.90;99.90;;;;;;5058394;28;20265;-36
2021/08/01 03:51:32;;;;;;;6.43;5.30;;;16.90;99.90;;;;;;5057939;28;20447;-39
2021/08/01 03:53:58;;;;;;;5.77;5.37;;;16.90;99.90;;;;;;5058425;28;20710;-37
2021/08/01 03:56:24;;;;;;;8.53;6.43;;;16.80;99.90;;;;;;5057831;28;20205;-39
2021/08/01 03:58:49;;;;;;;6.23;5.67;;;16.70;99.90;;;;;;5058392;28;20189;-37
2021/08/01 04:01:16;;;;;;;6.57;5.97;;;16.60;99.90;;;;;;5057721;28;20243;-39
2021/08/01 04:03:42;;;;;;;6.00;5.50;;;16.60;99.90;;;;;;5057573;28;20173;-39
2021/08/01 04:06:08;;;;;;;6.20;5.00;;;16.50;99.90;;;;;;5059216;28;20427;-40
2021/08/01 04:08:34;;;;;;;8.53;5.07;;;16.50;99.90;;;;;;5058714;28;20829;-40
2021/08/01 04:11:04;;;;;;;5.83;5.23;;;16.50;99.90;;;;;;5058672;28;20424;-40
2021/08/01 04:13:30;;;;;;;5.93;5.33;;;16.60;99.90;;;;;;5058220;28;20189;-39
2021/08/01 04:15:55;;;;;;;5.37;4.87;;;16.70;99.90;;;;;;5057057;28;20463;-39
2021/08/01 04:18:21;;;;;;;6.87;5.33;;;16.70;99.90;;;;;;5058294;28;20174;-40
2021/08/01 04:20:46;;;;;;;6.70;6.03;;;16.70;99.90;;;;;;5057820;28;20174;-41
2021/08/01 04:23:12;;;;;;;6.07;5.57;;;16.60;99.90;;;;;;5058308;28;20291;-39
2021/08/01 04:25:37;;;;;;;7.00;6.27;;;16.50;99.90;;;;;;5058003;28;20670;-40
2021/08/01 04:28:03;;;;;;;6.10;5.50;;;16.40;99.90;;;;;;5056373;28;20224;-40
2021/08/01 04:30:29;;;;;;;5.10;4.60;;;16.30;99.90;;;;;;5056798;28;20157;-41
2021/08/01 04:32:55;;;;;;;5.93;5.37;;;16.20;99.90;;;;;;5057292;28;20251;-40
2021/08/01 04:35:20;;;;;;;5.87;5.27;;;16.20;99.90;;;;;;5056623;28;20466;-39
2021/08/01 04:37:46;;;;;;;7.10;5.07;;;16.30;99.90;;;;;;5056924;28;20189;-40
2021/08/01 04:40:12;;;;;;;7.87;5.77;;;16.30;99.90;;;;;;5022287;28;20173;-41
2021/08/01 04:42:38;;;;;;;5.20;4.70;;;16.30;99.90;;;;;;5057377;28;20197;-39
2021/08/01 04:45:04;;;;;;;5.53;5.03;;;16.30;99.90;;;;;;5058197;28;20849;-40
2021/08/01 04:47:30;;;;;;;4.63;4.23;;;16.30;99.90;;;;;;5058310;28;20189;-42
2021/08/01 04:49:56;;;;;;;6.53;4.83;;;16.30;99.90;;;;;;5058261;28;20413;-38
2021/08/01 04:52:21;;;;;;;5.17;4.67;;;16.40;99.90;;;;;;5058121;28;20343;-40
2021/08/01 04:54:47;;;;;;;5.37;4.87;;;16.50;99.90;;;;;;5058419;28;20475;-40
2021/08/01 04:57:13;;;;;;;5.90;5.40;;;16.50;99.90;;;;;;5057129;28;20559;-42
2021/08/01 04:59:39;;;;;;;4.80;4.40;;;16.50;99.90;;;;;;5058702;28;20166;-40
2021/08/01 05:02:05;;;;;;;5.07;4.67;;;16.40;99.90;;;;;;5058218;28;20448;-41
2021/08/01 05:04:31;;;;;;;4.70;4.20;;;16.40;99.90;;;;;;5040399;28;20415;-39
2021/08/01 05:06:57;;;;;;;4.30;3.90;;;16.40;99.90;;;;;;5057758;28;20185;-39
2021/08/01 05:09:22;;;;;;;5.40;4.10;;;16.50;99.90;;;;;;5057742;28;20272;-41
2021/08/01 05:11:48;;;;;;;4.63;3.83;;;16.60;99.90;;;;;;5057143;28;20205;-38
2021/08/01 05:14:14;;;;;;;4.00;3.63;;;16.70;99.90;;;;;;5059844;28;20420;-40
2021/08/01 05:16:40;;;;;;;4.20;3.70;;;16.70;99.90;;;;;;5061705;28;20297;-38
2021/08/01 05:19:06;;;;;;;4.90;4.40;;;16.90;99.90;;;;;;5061779;28;20181;-39
2021/08/01 05:21:32;;;;;;;5.00;3.90;;;16.90;99.90;;;;;;5062457;28;20420;-38
2021/08/01 05:23:57;;;;;;;6.73;4.00;;;17.00;99.90;;;;;;5060557;28;20921;-40
2021/08/01 05:26:23;;;;;;;3.63;3.33;;;17.10;99.90;;;;;;5061644;28;20464;-40
2021/08/01 05:28:49;;;;;;;4.00;3.20;;;17.20;99.90;;;;;;5061441;28;20197;-40
2021/08/01 05:31:14;;;;;;;4.10;3.80;;;17.30;99.90;;;;;;5061709;28;20174;-40
2021/08/01 05:33:40;;;;;;;3.90;3.50;;;17.40;99.90;;;;;;5061572;28;20876;-40
2021/08/01 05:36:07;;;;;;;5.80;3.87;;;17.50;99.90;;;;;;5043862;28;20201;-39
2021/08/01 05:38:33;;;;;;;5.60;4.20;;;17.60;99.90;;;;;;5061703;28;20260;-40
2021/08/01 05:40:58;;;;;;;4.13;3.83;;;17.60;99.90;;;;;;5061893;28;20414;-40
2021/08/01 05:43:24;;;;;;;5.33;4.13;;;17.60;99.90;;;;;;5061074;28;20712;-40
2021/08/01 05:45:50;;;;;;;4.20;3.80;;;17.70;99.90;;;;;;5061145;28;20331;-40
2021/08/01 05:48:16;;;;;;;4.50;3.87;;;17.60;99.90;;;;;;5044220;28;20186;-43
2021/08/01 05:50:41;;;;;;;4.57;4.10;;;17.70;99.90;;;;;;5061497;28;20567;-39
2021/08/01 05:53:07;;;;;;;5.57;4.43;;;17.70;99.90;;;;;;5060916;28;20439;-41
2021/08/01 05:55:32;;;;;;;4.93;4.43;;;17.70;99.90;;;;;;5060790;28;20276;-39
2021/08/01 05:57:58;;;;;;;4.63;4.23;;;17.70;99.90;;;;;;5060680;28;20185;-40
2021/08/01 06:00:24;;;;;;;5.97;4.37;;;17.70;99.90;;;;;;5060853;28;20215;-40
2021/08/01 06:02:50;;;;;;;5.97;5.37;;;17.70;99.90;;;;;;5061055;28;20427;-43
2021/08/01 06:05:15;;;;;;;4.80;4.40;;;17.70;99.90;;;;;;5061337;28;20174;-40
2021/08/01 06:07:41;;;;;;;4.70;4.30;;;17.60;99.90;;;;;;5059729;28;20567;-40
2021/08/01 06:10:07;;;;;;;5.13;4.73;;;17.60;99.90;;;;;;5059512;28;20178;-39
2021/08/01 06:12:33;;;;;;;5.43;4.50;;;17.50;99.90;;;;;;5059214;28;20440;-40
2021/08/01 06:14:58;;;;;;;6.13;5.53;;;17.40;99.90;;;;;;5040999;28;20467;-42
2021/08/01 06:17:24;;;;;;;5.40;4.30;;;17.40;99.90;;;;;;5057988;28;20259;-42
2021/08/01 06:19:55;;;;;;;5.17;4.40;;;17.40;99.90;;;;;;5058611;28;20174;-40
2021/08/01 06:22:21;;;;;;;6.20;5.13;;;17.40;99.90;;;;;;5059180;28;20897;-42
2021/08/01 06:24:47;;;;;;;5.60;4.83;;;17.40;99.90;;;;;;5058495;28;20796;-40
2021/08/01 06:27:13;;;;;;;4.70;4.27;;;17.50;99.90;;;;;;5059266;28;20469;-39
2021/08/01 06:29:38;;;;;;;5.23;4.80;;;17.50;99.90;;;;;;5059948;28;20451;-39
2021/08/01 06:32:04;;;;;;;5.40;4.90;;;17.50;99.90;;;;;;5060552;28;20204;-40
2021/08/01 06:34:30;;;;;;;5.87;5.27;;;17.50;99.90;;;;;;5060280;28;20185;-39
2021/08/01 06:36:57;;;;;;;5.63;5.03;;;17.60;99.90;;;;;;5060384;28;20192;-38
2021/08/01 06:39:22;;;;;;;6.63;5.10;;;17.60;99.90;;;;;;5060474;28;20429;-40
2021/08/01 06:41:48;;;;;;;5.00;4.50;;;17.60;99.90;;;;;;5059265;28;20412;-38
2021/08/01 06:44:14;;;;;;;6.97;5.70;;;17.60;99.90;;;;;;5059752;28;20181;-42
2021/08/01 06:46:40;;;;;;;4.50;4.13;;;17.70;99.90;;;;;;5060784;28;20185;-39
2021/08/01 06:49:05;;;;;;;5.50;5.00;;;17.70;99.90;;;;;;5060782;28;20464;-40
2021/08/01 06:51:31;;;;;;;5.63;4.43;;;17.90;99.90;;;;;;5060284;28;20472;-39
2021/08/01 06:53:57;;;;;;;5.80;4.70;;;17.90;99.90;;;;;;5060493;28;20626;-42
2021/08/01 06:56:22;;;;;;;6.13;5.37;;;17.90;99.90;;;;;;5060097;28;20456;-39
2021/08/01 06:58:48;;;;;;;5.83;5.20;;;17.90;99.90;;;;;;5060085;28;20178;-42
2021/08/01 07:01:14;;;;;;;5.30;4.80;;;18.00;99.90;;;;;;5042466;28;20693;-40
2021/08/01 07:03:40;;;;;;;5.10;4.70;;;18.00;99.90;;;;;;5060106;28;20182;-41
2021/08/01 07:06:05;;;;;;;6.07;4.90;;;18.10;99.90;;;;;;5060387;28;20454;-41
2021/08/01 07:08:31;;;;;;;5.70;5.10;;;18.10;99.90;;;;;;5059383;28;20559;-37
2021/08/01 07:10:57;;;;;;;5.30;4.90;;;18.20;99.90;;;;;;5059705;28;20174;-40
2021/08/01 07:13:23;;;;;;;5.30;4.70;;;18.20;99.90;;;;;;5059709;28;20235;-40
2021/08/01 07:15:51;;;;;;;5.17;4.67;;;18.20;99.90;;;;;;5058252;28;20540;-40
2021/08/01 07:18:17;;;;;;;6.20;5.43;;;18.20;99.90;;;;;;5058123;28;20204;-41
2021/08/01 07:20:43;;;;;;;7.30;5.70;;;18.20;99.90;;;;;;5059228;28;20440;-38
2021/08/01 07:23:09;;;;;;;6.33;4.87;;;18.20;99.90;;;;;;5057811;28;20472;-41
2021/08/01 07:25:37;;;;;;;6.40;5.80;;;18.20;99.90;;;;;;5058250;28;20428;-38
2021/08/01 07:28:04;;;;;;;6.70;5.37;;;18.10;99.90;;;;;;5057683;28;20424;-38
2021/08/01 07:30:30;;;;;;;5.60;5.03;;;17.90;99.90;;;;;;5058593;28;20428;-37
2021/08/01 07:32:56;;;;;;;5.23;4.60;;;17.80;99.90;;;;;;5057946;28;20435;-40
2021/08/01 07:35:22;;;;;;;5.47;5.00;;;17.70;99.90;;;;;;5057900;28;20743;-40
2021/08/01 07:37:47;;;;;;;5.70;5.30;;;17.70;99.90;;;;;;5039110;28;20182;-39
2021/08/01 07:40:14;;;;;;;5.53;5.00;;;17.60;99.90;;;;;;5055803;28;20193;-40
2021/08/01 07:42:39;;;;;;;6.53;5.37;;;17.60;99.90;;;;;;5056627;28;20201;-39
2021/08/01 07:45:10;;;;;;;6.30;5.00;;;17.50;99.90;;;;;;5056190;28;20511;-40
2021/08/01 07:47:36;;;;;;;5.80;5.10;;;17.50;99.90;;;;;;5056204;28;20273;-39
2021/08/01 07:50:04;;;;;;;6.30;5.73;;;17.60;99.90;;;;;;5057723;28;20511;-39
2021/08/01 07:52:32;;;;;;;6.63;5.97;;;17.60;99.90;;;;;;5058322;28;20237;-41
2021/08/01 07:54:58;;;;;;;6.03;5.40;;;17.50;99.90;;;;;;5041338;28;20472;-38
2021/08/01 07:57:25;;;;;;;5.60;5.10;;;17.50;99.90;;;;;;5058846;28;20421;-45
2021/08/01 07:59:51;;;;;;;6.77;5.30;;;17.40;99.90;;;;;;5041315;28;20422;-39
2021/08/01 08:02:17;;;;;;;6.60;5.43;;;17.30;99.90;;;;;;5041369;28;20495;-39
2021/08/01 08:04:42;;;;;;;8.77;6.83;;;17.30;99.90;;;;;;5057947;28;20192;-39
2021/08/01 08:07:08;;;;;;;6.27;5.40;;;17.30;99.90;;;;;;5058152;28;20444;-38
2021/08/01 08:09:34;;;;;;;6.43;5.40;;;17.30;99.90;;;;;;5057319;28;20174;-38
2021/08/01 08:11:59;;;;;;;6.50;5.30;;;17.30;99.90;;;;;;5056719;28;20409;-39
2021/08/01 08:14:25;;;;;;;8.03;6.10;;;17.30;99.90;;;;;;5039766;28;20281;-40
2021/08/01 08:16:51;;;;;;;6.63;5.00;;;17.30;99.90;;;;;;5056754;28;20297;-41
2021/08/01 08:19:16;;;;;;;6.70;6.00;;;17.20;99.90;;;;;;5057288;28;20579;-39
2021/08/01 08:21:42;;;;;;;6.40;5.63;;;17.20;99.90;;;;;;5057412;28;20254;-39
2021/08/01 08:24:08;;;;;;;6.13;5.33;;;17.10;99.90;;;;;;5057494;28;20323;-39
2021/08/01 08:26:34;;;;;;;6.23;5.40;;;17.10;99.90;;;;;;5057320;28;20256;-38
2021/08/01 08:28:59;;;;;;;7.20;6.47;;;17.10;99.90;;;;;;5057103;28;20182;-39
2021/08/01 08:31:25;;;;;;;6.03;5.53;;;17.10;99.90;;;;;;5039338;28;20515;-39
2021/08/01 08:33:51;;;;;;;5.50;4.80;;;17.10;99.90;;;;;;5056415;28;20196;-40
2021/08/01 08:36:17;;;;;;;6.20;4.80;;;17.10;99.90;;;;;;5056295;28;20466;-39
2021/08/01 08:38:42;;;;;;;6.70;4.93;;;17.10;99.90;;;;;;5057402;28;20486;-39
2021/08/01 08:41:13;;;;;;;6.87;5.47;;;17.10;99.90;;;;;;5056195;28;20185;-41
2021/08/01 08:43:39;;;;;;;5.60;5.10;;;17.10;99.90;;;;;;5056108;28;20177;-40
2021/08/01 08:46:05;;;;;;;5.80;5.30;;;17.10;99.90;;;;;;5038959;28;20439;-39
2021/08/01 08:48:31;;;;;;;5.07;4.67;;;17.10;99.90;;;;;;5039478;28;20451;-38
2021/08/01 08:50:57;;;;;;;4.53;4.13;;;17.10;99.90;;;;;;5040677;28;20442;-41
2021/08/01 08:53:26;;;;;;;5.40;4.90;;;17.00;99.90;;;;;;5040006;28;20435;-39
2021/08/01 08:55:52;;;;;;;6.30;5.77;;;17.00;99.90;;;;;;5039923;28;20475;-41
2021/08/01 08:58:21;;;;;;;4.53;4.13;;;17.00;99.90;;;;;;5056552;28;20473;-36
2021/08/01 09:00:47;;;;;;;4.50;4.10;;;17.20;99.90;;;;;;5056409;28;20713;-40
2021/08/01 09:03:13;;;;;;;4.80;4.40;;;17.30;99.90;;;;;;5057410;28;20420;-38
2021/08/01 09:05:38;;;;;;;4.20;3.77;;;17.20;99.90;;;;;;5056873;28;20431;-41
2021/08/01 09:08:04;;;;;;;5.77;4.57;;;17.30;99.90;;;;;;5055626;28;20209;-41
2021/08/01 09:10:31;;;;;;;4.00;3.70;;;17.40;99.90;;;;;;5056047;28;20574;-42
2021/08/01 09:12:56;;;;;;;4.17;3.50;;;17.60;99.90;;;;;;5056198;28;20420;-39
2021/08/01 09:15:27;;;;;;;6.20;4.17;;;17.80;99.90;;;;;;5055753;28;20582;-39
2021/08/01 09:17:55;;;;;;;4.90;4.50;;;17.90;99.90;;;;;;5056308;28;20189;-40
2021/08/01 09:20:24;;;;;;;4.63;4.20;;;18.10;99.90;;;;;;5054828;28;20419;-38
2021/08/01 09:22:59;;;;;;;4.37;4.07;;;18.10;99.90;;;;;;5055831;28;20464;-38
2021/08/01 09:25:27;;;;;;;5.47;4.97;;;18.20;99.90;;;;;;5056775;28;20423;-40
2021/08/01 09:28:05;;;;;;;4.77;4.10;;;18.20;99.90;;;;;;5056977;28;20525;-40
2021/08/01 09:30:44;;;;;;;4.40;3.97;;;18.20;99.90;;;;;;5056694;28;20420;-38
2021/08/01 09:33:10;;;;;;;4.47;4.07;;;18.20;99.90;;;;;;5056798;28;20431;-39
2021/08/01 09:35:36;;;;;;;5.77;3.93;;;18.20;99.90;;;;;;5056088;28;20480;-41
2021/08/01 09:38:02;;;;;;;4.50;4.03;;;18.30;99.90;;;;;;5039439;28;20173;-39
2021/08/01 09:40:29;;;;;;;4.87;4.47;;;18.40;99.90;;;;;;5056230;28;20515;-38
2021/08/01 09:43:11;;;;;;;5.00;4.20;;;18.40;99.90;;;;;;5056514;28;20547;-44
2021/08/01 09:45:37;;;;;;;4.80;4.10;;;18.40;99.60;;;;;;5056399;28;20424;-45
2021/08/01 09:48:20;;;;;;;5.30;4.00;;;18.40;98.80;;;;;;5055265;28;20424;-45
2021/08/01 09:50:59;;;;;;;4.10;3.70;;;18.70;99.40;;;;;;5053647;28;20481;-45
2021/08/01 09:53:25;;;;;;;4.40;3.97;;;19.00;99.20;;;;;;5051745;28;20447;-45
2021/08/01 09:56:10;;;;;;;3.90;3.50;;;19.30;98.50;;;;;;5034386;28;20494;-45
2021/08/01 09:58:36;;;;;;;4.40;3.47;;;19.70;98.10;;;;;;5054572;28;20475;-45
2021/08/01 10:01:03;;;;;;;3.53;3.23;;;20.10;97.00;;;;;;5056006;28;20419;-45
2021/08/01 10:03:43;;;;;;;3.70;3.40;;;20.30;96.30;;;;;;5057746;28;20419;-44
2021/08/01 10:06:10;;;;;;;4.47;4.07;;;20.60;96.20;;;;;;5041309;28;20412;-45
2021/08/01 10:08:43;;;;;;;5.17;3.80;;;21.00;95.90;;;;;;5040725;28;20510;-45
2021/08/01 10:11:13;;;;;;;4.40;3.60;;;21.30;94.80;;;;;;5057849;28;20790;-45
2021/08/01 10:13:39;;;;;;;4.67;4.27;;;21.50;94.50;;;;;;5040734;28;20456;-45
2021/08/01 10:16:09;;;;;;;4.83;4.07;;;21.60;93.90;;;;;;5058371;28;20471;-45
2021/08/01 10:18:40;;;;;;;4.53;4.13;;;21.70;93.90;;;;;;5058815;28;20718;-45
2021/08/01 10:21:07;;;;;;;5.87;4.60;;;21.80;94.30;;;;;;5058089;28;20421;-45
2021/08/01 10:24:00;;;;;;;6.70;4.60;;;21.80;93.80;;;;;;5057600;28;20483;-45
2021/08/01 10:26:38;;;;;;;5.03;4.30;;;21.80;93.60;;;;;;5056588;28;20833;-45
2021/08/01 10:29:07;;;;;;;4.90;4.50;;;21.80;93.50;;;;;;5040216;28;20796;-45
2021/08/01 10:31:41;;;;;;;5.83;5.23;;;22.00;93.30;;;;;;5040990;28;20449;-45
2021/08/01 10:34:17;;;;;;;5.97;5.47;;;22.10;93.60;;;;;;5040426;28;20826;-45
2021/08/01 10:36:47;;;;;;;5.57;5.07;;;22.30;93.30;;;;;;5040190;28;20463;-45
2021/08/01 10:39:13;;;;;;;6.57;5.73;;;22.20;93.30;;;;;;5058642;28;20527;-45
2021/08/01 10:41:39;;;;;;;6.23;4.80;;;21.90;93.10;;;;;;5041324;28;20501;-45
2021/08/01 10:44:09;;;;;;;5.67;5.20;;;22.00;93.40;;;;;;5057909;28;20452;-45
2021/08/01 10:46:35;;;;;;;5.67;5.07;;;22.30;93.70;;;;;;5057835;28;20425;-45
2021/08/01 10:49:05;;;;;;;5.80;5.00;;;22.60;93.30;;;;;;5039748;28;20428;-45
2021/08/01 10:51:31;;;;;;;5.80;4.93;;;22.60;92.60;;;;;;5038868;28;20841;-45
2021/08/01 10:54:24;;;;;;;5.60;5.10;;;22.70;92.60;;;;;;5055975;28;20493;-45
2021/08/01 10:57:11;;;;;;;5.90;4.93;;;22.80;92.50;;;;;;5055517;28;20464;-45
2021/08/01 10:59:46;;;;;;;5.03;4.63;;;22.60;92.30;;;;;;5054334;28;20466;-45
2021/08/01 11:02:17;;;;;;;5.20;4.70;;;22.70;92.50;;;;;;5067366;28;20453;-45
2021/08/01 11:04:44;;;;;;;6.40;5.40;;;22.90;92.50;;;;;;5075020;28;20442;-44
2021/08/01 11:07:10;;;;;;;6.10;5.53;;;22.90;92.30;;;;;;5058858;28;20787;-45
2021/08/01 11:09:36;;;;;;;8.03;5.37;;;23.10;91.70;;;;;;5075813;28;20412;-45
2021/08/01 11:12:33;;;;;;;4.43;4.03;;;23.40;91.70;;;;;;5076250;28;20242;-45
2021/08/01 11:15:01;;;;;;;5.60;5.03;;;23.80;91.60;;;;;;5077188;28;20467;-46
2021/08/01 11:18:00;;;;;;;6.87;5.23;;;24.10;90.60;;;;;;5076062;28;20715;-45
2021/08/01 11:20:28;;;;;;;5.57;4.90;;;24.10;90.90;;;;;;5076615;28;20418;-45
2021/08/01 11:22:55;;;;;;;4.73;4.33;;;24.10;88.70;;;;;;5077436;28;20466;-45
2021/08/01 11:25:34;;;;;;;5.13;4.63;;;24.20;90.20;;;;;;5076960;28;20756;-45
2021/08/01 11:28:12;;;;;;;5.20;4.10;;;24.80;87.80;;;;;;5058625;28;20545;-45
2021/08/01 11:33:41;;;;;;;4.80;4.40;;;25.60;82.10;;;;;;5075340;28;20439;-45
2021/08/01 11:36:18;;;;;;;4.83;4.40;;;25.80;83.00;;;;;;5076452;28;20455;-45
2021/08/01 11:38:56;;;;;;;5.10;4.60;;;26.40;83.60;;;;;;5071762;28;20713;-45
2021/08/01 11:41:40;;;;;;;5.80;5.20;;;27.00;80.20;;;;;;5038279;28;20416;-45
2021/08/01 11:44:23;;;;;;;6.07;5.43;;;26.90;79.60;;;;;;5056570;28;20919;-45
2021/08/01 11:46:59;;;;;;;7.33;5.07;;;26.80;78.60;;;;;;5055263;28;20416;-45
2021/08/01 11:49:35;;;;;;;5.50;5.00;;;26.80;77.60;;;;;;5055400;28;20850;-46
2021/08/01 11:52:04;;;;;;;5.87;4.83;;;26.60;78.70;;;;;;5054002;28;20458;-46
2021/08/01 11:54:35;;;;;;;5.60;5.10;;;26.30;78.30;;;;;;5055045;28;20867;-46
2021/08/01 11:57:10;;;;;;;4.80;4.50;;;25.80;80.10;;;;;;5054934;28;20558;-46
2021/08/01 11:59:37;;;;;;;5.37;4.97;;;24.90;83.90;;;;;;5037809;28;20505;-46
2021/08/01 12:02:10;;;;;;;5.43;4.93;;;24.70;84.20;;;;;;5056454;28;20423;-45
2021/08/01 12:04:37;;;;;;;5.60;4.67;;;24.80;85.50;;;;;;5055883;28;20547;-46
2021/08/01 12:07:03;;;;;;;6.50;5.20;;;25.70;82.80;;;;;;5054045;28;20526;-46
2021/08/01 12:09:31;;;;;;;5.50;4.93;;;25.70;81.50;;;;;;5054020;28;20706;-46
2021/08/01 12:11:58;;;;;;;4.77;4.37;;;24.90;82.50;;;;;;5055013;28;20819;-45
2021/08/01 12:14:28;;;;;;;5.63;5.10;;;24.50;84.50;;;;;;5038492;28;20432;-46
2021/08/01 12:16:56;;;;;;;6.07;4.63;;;24.60;84.80;;;;;;5054300;28;20546;-46
2021/08/01 12:19:24;;;;;;;4.80;4.40;;;25.10;81.00;;;;;;5054425;28;20432;-46
2021/08/01 12:21:54;;;;;;;4.43;3.87;;;24.90;81.80;;;;;;5059482;28;20868;-46
2021/08/01 12:24:30;;;;;;;4.87;4.30;;;24.90;81.10;;;;;;5074364;28;20478;-46
2021/08/01 12:27:10;;;;;;;5.33;3.67;;;24.50;81.90;;;;;;5074515;28;20705;-47
2021/08/01 12:29:41;;;;;;;3.70;3.40;;;24.60;81.40;;;;;;5073033;28;20526;-45
2021/08/01 12:32:17;;;;;;;3.70;3.40;;;24.50;77.50;;;;;;5075372;28;20415;-46
2021/08/01 12:34:43;;;;;;;4.60;4.20;;;24.20;78.00;;;;;;5076057;28;20519;-46
2021/08/01 12:37:09;;;;;;;5.27;3.53;;;24.20;78.10;;;;;;5074259;28;20465;-46
2021/08/01 12:39:52;;;;;;;4.23;3.83;;;24.20;78.50;;;;;;5072666;28;20435;-46
2021/08/01 12:42:19;;;;;;;4.30;3.60;;;24.20;77.80;;;;;;5074214;28;20407;-47
2021/08/01 12:44:53;;;;;;;4.20;3.80;;;24.80;78.90;;;;;;5075269;28;20415;-47
2021/08/01 12:47:19;;;;;;;4.23;3.90;;;26.60;75.80;;;;;;5058489;28;20427;-46
2021/08/01 12:49:45;;;;;;;3.83;3.43;;;28.70;70.50;;;;;;5057575;28;20423;-45
2021/08/01 12:52:11;;;;;;;4.73;4.33;;;30.60;61.80;;;;;;5076383;28;20783;-43
2021/08/01 12:54:37;;;;;;;4.00;3.60;;;32.20;59.30;;;;;;5056991;28;20405;-43
2021/08/01 12:57:05;;;;;;;3.53;3.23;;;33.40;56.10;;;;;;5077244;28;20442;-46